METAR Data
IDs: Format: Raw Decoded Include TAF

Data at: 1026 UTC 18 Jan 2022

KMTJ 180953Z AUTO 14005KT 10SM CLR M06/M09 A3005 RMK AO2 SLP174 T10611089
KMTJ 180853Z AUTO 14004KT 10SM CLR M05/M08 A3005 RMK AO2 SLP171 T10501083 57006
KMTJ 180753Z AUTO 19005KT 10SM CLR M05/M09 A3005 RMK AO2 SLP175 T10501089
KMTJ 180653Z AUTO 14004KT 10SM CLR M05/M08 A3006 RMK AO2 SLP185 T10501078 400611089
KMTJ 180553Z AUTO 15005KT 10SM CLR M04/M07 A3007 RMK AO2 SLP189 T10441072 10033 21044 56004
KMTJ 180453Z AUTO 17005KT 10SM CLR M03/M07 A3007 RMK AO2 SLP192 T10281067
KMTJ 180353Z AUTO 13005KT 10SM CLR M03/M07 A3007 RMK AO2 SLP200 T10281072
KMTJ 180253Z AUTO 15004KT 10SM CLR M02/M07 A3008 RMK AO2 SLP209 T10171072 53000
KMTJ 180153Z AUTO 11005KT 10SM CLR M01/M08 A3008 RMK AO2 SLP206 T10111078
KMTJ 180053Z AUTO 00000KT 10SM CLR 01/M09 A3008 RMK AO2 SLP201 T00111089
KMTJ 172353Z AUTO 00000KT 10SM CLR 03/M10 A3008 RMK AO2 SLP196 T00331100 10061 20011 52004
KMTJ 172253Z AUTO 36005KT 10SM CLR 04/M09 A3007 RMK AO2 SLP191 T00441094
KMTJ 172153Z AUTO 34006KT 10SM CLR 06/M09 A3007 RMK AO2 SLP186 T00561094
KMTJ 172053Z AUTO 00000KT 10SM CLR 06/M09 A3007 RMK AO2 SLP181 T00611094 58033
KMTJ 171953Z AUTO 34005KT 10SM CLR 05/M09 A3012 RMK AO2 SLP204 T00501089
KMTJ 171853Z AUTO 00000KT 10SM CLR 03/M09 A3014 RMK AO2 SLP213 T00281089
KMTJ 171753Z AUTO 30003KT 10SM CLR 01/M10 A3018 RMK AO2 SLP232 T00111100 10011 21089 58000
KMTJ 171653Z AUTO 00000KT 10SM CLR M02/M10 A3019 RMK AO2 SLP239 T10171100
KMTJ 171553Z AUTO 15004KT 10SM CLR M05/M11 A3020 RMK AO2 SLP247 T10501111
KMTJ 171453Z AUTO 15004KT 10SM CLR M09/M12 A3018 RMK AO2 SLP249 T10891122 55002
KMTJ 171353Z AUTO 16007KT 10SM CLR M08/M12 A3018 RMK AO2 SLP244 T10781117
KMTJ 171253Z AUTO 15006KT 10SM CLR M08/M12 A3018 RMK AO2 SLP237 T10831117
KMTJ 171153Z AUTO 16006KT 10SM CLR M08/M11 A3019 RMK AO2 SLP232 T10781111 11056 21083 57006
KMTJ 171053Z AUTO 14004KT 10SM CLR M08/M11 A3020 RMK AO2 SLP232 T10831106
KMTJ 170953Z AUTO 12005KT 10SM CLR M07/M11 A3020 RMK AO2 SLP232 T10721106
KMTJ 170853Z AUTO 15008KT 10SM CLR M07/M10 A3021 RMK AO2 SLP237 T10671100 56007
KMTJ 170753Z AUTO 15005KT 10SM CLR M06/M10 A3021 RMK AO2 SLP239 T10611100
KMTJ 170653Z AUTO 13007KT 10SM CLR M06/M09 A3023 RMK AO2 SLP248 T10561089 400611094
KMTJ 170553Z AUTO 15007KT 10SM CLR M06/M08 A3024 RMK AO2 SLP253 T10561083 10044 21056 56003
KMTJ 170453Z AUTO 18007KT 10SM CLR M04/M08 A3024 RMK AO2 SLP257 T10441078
KMTJ 170353Z AUTO 12006KT 10SM CLR M04/M08 A3024 RMK AO2 SLP265 T10391078
KMTJ 170253Z AUTO 14005KT 10SM CLR M04/M08 A3025 RMK AO2 SLP275 T10391078 51012
KMTJ 170153Z AUTO 14005KT 10SM CLR M03/M08 A3024 RMK AO2 SLP268 T10281083
KMTJ 170053Z AUTO 00000KT 10SM CLR 01/M09 A3022 RMK AO2 SLP251 T00111094
KMTJ 162353Z AUTO 36003KT 10SM CLR 04/M09 A3021 RMK AO2 SLP238 T00441094 10061 21006 58004
KMTJ 162253Z AUTO 34003KT 10SM CLR 06/M09 A3021 RMK AO2 SLP236 T00561094